FHV33 KDTW-KSYR
Flight info
| Callsign | FHV33 |
|---|---|
| Flight time | 0h 56m |
| Altitude | 33000 |
| Route | HHOWE4 LNCON JHW NABOR |
| Aircraft | A320/M-SDE3FGHIRWY/LB1 |
Departure
| Time | 2026-04-18 03:27 |
|---|---|
| Airport | Detroit Metropolitan Wayne County Airport (KDTW) |
Arrival
| Time | 2026-04-18 04:23 |
|---|---|
| Airport | Syracuse Hancock International Airport (KSYR) |
| Time | Latitude | Longitude | Altitude | Speed | Heading |
|---|---|---|---|---|---|
| 2026-04-18 02:47 | 42.20535 | -83.36083 | 650 ft | 0 kts | 115° |
| 2026-04-18 03:18 | 42.20538 | -83.36093 | 649 ft | 4 kts | 114° |
| 2026-04-18 03:18 | 42.20548 | -83.36126 | 649 ft | 4 kts | 107° |
| 2026-04-18 03:18 | 42.20555 | -83.36162 | 649 ft | 4 kts | 96° |
| 2026-04-18 03:18 | 42.20553 | -83.36196 | 649 ft | 4 kts | 58° |
| 2026-04-18 03:19 | 42.20547 | -83.36208 | 649 ft | 1 kts | 27° |
| 2026-04-18 03:21 | 42.20549 | -83.36206 | 649 ft | 3 kts | 27° |
| 2026-04-18 03:21 | 42.20612 | -83.36158 | 650 ft | 18 kts | 33° |
| 2026-04-18 03:21 | 42.20756 | -83.36054 | 650 ft | 29 kts | 27° |
| 2026-04-18 03:22 | 42.20941 | -83.35916 | 651 ft | 28 kts | 28° |
| 2026-04-18 03:22 | 42.21112 | -83.35789 | 651 ft | 28 kts | 29° |
| 2026-04-18 03:22 | 42.21286 | -83.35661 | 649 ft | 29 kts | 28° |
| 2026-04-18 03:22 | 42.21446 | -83.35545 | 650 ft | 22 kts | 28° |
| 2026-04-18 03:23 | 42.21543 | -83.35439 | 650 ft | 17 kts | 69° |
| 2026-04-18 03:23 | 42.21552 | -83.35272 | 649 ft | 18 kts | 89° |
| 2026-04-18 03:23 | 42.21559 | -83.35101 | 649 ft | 17 kts | 70° |
| 2026-04-18 03:23 | 42.21637 | -83.34978 | 648 ft | 18 kts | 44° |
| 2026-04-18 03:24 | 42.21733 | -83.34857 | 649 ft | 19 kts | 43° |
| 2026-04-18 03:24 | 42.21824 | -83.34738 | 649 ft | 16 kts | 53° |
| 2026-04-18 03:24 | 42.21837 | -83.34591 | 649 ft | 16 kts | 88° |
| 2026-04-18 03:24 | 42.21900 | -83.34469 | 649 ft | 17 kts | 28° |
| 2026-04-18 03:25 | 42.22031 | -83.34374 | 649 ft | 27 kts | 29° |
| 2026-04-18 03:25 | 42.22200 | -83.34250 | 648 ft | 28 kts | 28° |
| 2026-04-18 03:25 | 42.22372 | -83.34123 | 648 ft | 29 kts | 28° |
| 2026-04-18 03:25 | 42.22546 | -83.33992 | 649 ft | 29 kts | 29° |
| 2026-04-18 03:26 | 42.22724 | -83.33863 | 650 ft | 28 kts | 27° |
| 2026-04-18 03:26 | 42.22843 | -83.33767 | 647 ft | 16 kts | 56° |
| 2026-04-18 03:26 | 42.22804 | -83.33655 | 645 ft | 16 kts | 173° |
| 2026-04-18 03:26 | 42.22698 | -83.33715 | 647 ft | 24 kts | 209° |
| 2026-04-18 03:27 | 42.22331 | -83.33984 | 647 ft | 95 kts | 209° |
| 2026-04-18 03:27 | 42.21573 | -83.34539 | 648 ft | 150 kts | 208° |
| 2026-04-18 03:27 | 42.20615 | -83.35253 | 1137 ft | 157 kts | 205° |
| 2026-04-18 03:27 | 42.19644 | -83.35926 | 1865 ft | 155 kts | 194° |
| 2026-04-18 03:28 | 42.18592 | -83.36100 | 2554 ft | 156 kts | 175° |
| 2026-04-18 03:28 | 42.17464 | -83.35791 | 2871 ft | 176 kts | 171° |
| 2026-04-18 03:28 | 42.16188 | -83.35414 | 3109 ft | 201 kts | 171° |
| 2026-04-18 03:28 | 42.14757 | -83.34990 | 3616 ft | 216 kts | 171° |
| 2026-04-18 03:29 | 42.13270 | -83.34546 | 4404 ft | 220 kts | 172° |
| 2026-04-18 03:29 | 42.11763 | -83.34097 | 5179 ft | 224 kts | 172° |
| 2026-04-18 03:29 | 42.10293 | -83.33333 | 5877 ft | 241 kts | 148° |
| 2026-04-18 03:29 | 42.09269 | -83.31403 | 6372 ft | 275 kts | 113° |
| 2026-04-18 03:30 | 42.09009 | -83.28730 | 6832 ft | 299 kts | 93° |
| 2026-04-18 03:30 | 42.09173 | -83.25903 | 6976 ft | 304 kts | 85° |
| 2026-04-18 03:30 | 42.09648 | -83.23126 | 7003 ft | 307 kts | 69° |
| 2026-04-18 03:30 | 42.10502 | -83.20484 | 6999 ft | 307 kts | 70° |
| 2026-04-18 03:31 | 42.11185 | -83.17767 | 6999 ft | 306 kts | 77° |
| 2026-04-18 03:31 | 42.11702 | -83.14994 | 7000 ft | 305 kts | 79° |
| 2026-04-18 03:31 | 42.12306 | -83.12236 | 7185 ft | 311 kts | 74° |
| 2026-04-18 03:31 | 42.12980 | -83.09467 | 8060 ft | 311 kts | 73° |
| 2026-04-18 03:32 | 42.13683 | -83.06711 | 8914 ft | 313 kts | 72° |
| 2026-04-18 03:32 | 42.14415 | -83.03941 | 9755 ft | 315 kts | 71° |
| 2026-04-18 03:32 | 42.15170 | -83.01142 | 10358 ft | 325 kts | 71° |
| 2026-04-18 03:32 | 42.15970 | -82.98173 | 10571 ft | 348 kts | 71° |
| 2026-04-18 03:33 | 42.16813 | -82.95049 | 11041 ft | 359 kts | 71° |
| 2026-04-18 03:33 | 42.17675 | -82.91856 | 11695 ft | 365 kts | 71° |
| 2026-04-18 03:33 | 42.18535 | -82.88667 | 12372 ft | 369 kts | 71° |
| 2026-04-18 03:33 | 42.19428 | -82.85350 | 13044 ft | 373 kts | 71° |
| 2026-04-18 03:34 | 42.20306 | -82.82085 | 13699 ft | 377 kts | 72° |
| 2026-04-18 03:34 | 42.21202 | -82.78737 | 14288 ft | 381 kts | 72° |
| 2026-04-18 03:34 | 42.22107 | -82.75348 | 14877 ft | 385 kts | 71° |
| 2026-04-18 03:34 | 42.23017 | -82.71938 | 15470 ft | 388 kts | 71° |
| 2026-04-18 03:35 | 42.23624 | -82.69661 | 15870 ft | 390 kts | 71° |
| 2026-04-18 03:35 | 42.24510 | -82.66180 | 16448 ft | 393 kts | 76° |
| 2026-04-18 03:35 | 42.25014 | -82.62544 | 17028 ft | 394 kts | 87° |
| 2026-04-18 03:35 | 42.25167 | -82.58847 | 17604 ft | 397 kts | 89° |
| 2026-04-18 03:36 | 42.25308 | -82.55111 | 18176 ft | 400 kts | 89° |
| 2026-04-18 03:36 | 42.25451 | -82.51347 | 18677 ft | 403 kts | 89° |
| 2026-04-18 03:36 | 42.25596 | -82.47591 | 19171 ft | 406 kts | 89° |
| 2026-04-18 03:36 | 42.25694 | -82.43772 | 19678 ft | 408 kts | 91° |
| 2026-04-18 03:37 | 42.25705 | -82.39928 | 20181 ft | 410 kts | 92° |
| 2026-04-18 03:37 | 42.25656 | -82.36065 | 20670 ft | 413 kts | 93° |
| 2026-04-18 03:37 | 42.25578 | -82.32180 | 21157 ft | 415 kts | 93° |
| 2026-04-18 03:37 | 42.25496 | -82.28274 | 21634 ft | 418 kts | 93° |
| 2026-04-18 03:38 | 42.25425 | -82.24346 | 22102 ft | 420 kts | 92° |
| 2026-04-18 03:38 | 42.25365 | -82.20392 | 22571 ft | 423 kts | 92° |
| 2026-04-18 03:38 | 42.25316 | -82.16413 | 23024 ft | 426 kts | 92° |
| 2026-04-18 03:38 | 42.25274 | -82.12396 | 23470 ft | 428 kts | 92° |
| 2026-04-18 03:39 | 42.25232 | -82.08371 | 23846 ft | 431 kts | 92° |
| 2026-04-18 03:39 | 42.25186 | -82.04362 | 24204 ft | 433 kts | 92° |
| 2026-04-18 03:39 | 42.25134 | -82.00285 | 24563 ft | 436 kts | 92° |
| 2026-04-18 03:39 | 42.25075 | -81.96171 | 24916 ft | 438 kts | 92° |
| 2026-04-18 03:40 | 42.25013 | -81.92046 | 25264 ft | 441 kts | 92° |
| 2026-04-18 03:40 | 42.24950 | -81.87908 | 25606 ft | 443 kts | 91° |
| 2026-04-18 03:40 | 42.24885 | -81.83729 | 25948 ft | 445 kts | 91° |
| 2026-04-18 03:40 | 42.24822 | -81.79534 | 26291 ft | 448 kts | 91° |
| 2026-04-18 03:41 | 42.24759 | -81.75315 | 26622 ft | 450 kts | 91° |
| 2026-04-18 03:41 | 42.24694 | -81.71076 | 26956 ft | 452 kts | 91° |
| 2026-04-18 03:41 | 42.24628 | -81.66879 | 27283 ft | 455 kts | 91° |
| 2026-04-18 03:41 | 42.24558 | -81.62602 | 27605 ft | 457 kts | 91° |
| 2026-04-18 03:42 | 42.24485 | -81.58296 | 27932 ft | 459 kts | 91° |
| 2026-04-18 03:42 | 42.24410 | -81.53979 | 28246 ft | 462 kts | 91° |
| 2026-04-18 03:42 | 42.24334 | -81.49629 | 28565 ft | 464 kts | 91° |
| 2026-04-18 03:42 | 42.24268 | -81.45258 | 28877 ft | 466 kts | 90° |
| 2026-04-18 03:43 | 42.24210 | -81.40869 | 29188 ft | 469 kts | 90° |
| 2026-04-18 03:43 | 42.24155 | -81.36467 | 29489 ft | 471 kts | 90° |
| 2026-04-18 03:43 | 42.24100 | -81.32034 | 29779 ft | 473 kts | 90° |
| 2026-04-18 03:43 | 42.24045 | -81.27583 | 30058 ft | 476 kts | 90° |
| 2026-04-18 03:44 | 42.23983 | -81.23100 | 30293 ft | 478 kts | 90° |
| 2026-04-18 03:44 | 42.23916 | -81.18607 | 30522 ft | 480 kts | 90° |
| 2026-04-18 03:44 | 42.23844 | -81.14091 | 30742 ft | 482 kts | 90° |
| 2026-04-18 03:44 | 42.23768 | -81.09560 | 30959 ft | 484 kts | 90° |
| 2026-04-18 03:45 | 42.23690 | -81.05006 | 31225 ft | 485 kts | 90° |
| 2026-04-18 03:45 | 42.23613 | -81.00452 | 31544 ft | 484 kts | 90° |
| 2026-04-18 03:45 | 42.23536 | -80.95919 | 31852 ft | 484 kts | 90° |
| 2026-04-18 03:45 | 42.23457 | -80.91427 | 32154 ft | 484 kts | 90° |
| 2026-04-18 03:46 | 42.23375 | -80.86885 | 32462 ft | 484 kts | 90° |
| 2026-04-18 03:46 | 42.23291 | -80.82349 | 32765 ft | 484 kts | 90° |
| 2026-04-18 03:46 | 42.23205 | -80.77808 | 32973 ft | 484 kts | 90° |
| 2026-04-18 03:46 | 42.23117 | -80.73309 | 33007 ft | 474 kts | 90° |
| 2026-04-18 03:47 | 42.22941 | -80.64504 | 33008 ft | 467 kts | 90° |
| 2026-04-18 03:47 | 42.22759 | -80.55740 | 33007 ft | 466 kts | 90° |
| 2026-04-18 03:48 | 42.22571 | -80.46992 | 33012 ft | 466 kts | 90° |
| 2026-04-18 03:48 | 42.22380 | -80.38263 | 33016 ft | 465 kts | 90° |
| 2026-04-18 03:49 | 42.22184 | -80.29547 | 33019 ft | 465 kts | 90° |
| 2026-04-18 03:49 | 42.21980 | -80.20827 | 33020 ft | 464 kts | 90° |
| 2026-04-18 03:50 | 42.21770 | -80.12122 | 33019 ft | 464 kts | 90° |
| 2026-04-18 03:50 | 42.21555 | -80.03477 | 33019 ft | 464 kts | 90° |
| 2026-04-18 03:51 | 42.21331 | -79.94777 | 33019 ft | 464 kts | 90° |
| 2026-04-18 03:51 | 42.21095 | -79.86076 | 33017 ft | 464 kts | 90° |
| 2026-04-18 03:52 | 42.20855 | -79.77389 | 33023 ft | 464 kts | 90° |
| 2026-04-18 03:52 | 42.20612 | -79.68696 | 33037 ft | 464 kts | 90° |
| 2026-04-18 03:53 | 42.20361 | -79.60005 | 33057 ft | 463 kts | 90° |
| 2026-04-18 03:53 | 42.20104 | -79.51322 | 33074 ft | 463 kts | 90° |
| 2026-04-18 03:54 | 42.19847 | -79.42651 | 33074 ft | 463 kts | 90° |
| 2026-04-18 03:54 | 42.19577 | -79.33985 | 33081 ft | 462 kts | 90° |
| 2026-04-18 03:55 | 42.19300 | -79.25332 | 33083 ft | 462 kts | 90° |
| 2026-04-18 03:55 | 42.19087 | -79.16684 | 33082 ft | 459 kts | 84° |
| 2026-04-18 03:56 | 42.20287 | -79.08339 | 33072 ft | 450 kts | 65° |
| 2026-04-18 03:56 | 42.22819 | -79.00729 | 33059 ft | 447 kts | 61° |
| 2026-04-18 03:57 | 42.26767 | -78.89327 | 33040 ft | 447 kts | 61° |
| 2026-04-18 03:57 | 42.28081 | -78.85533 | 32888 ft | 444 kts | 61° |
| 2026-04-18 03:58 | 42.29370 | -78.81800 | 32627 ft | 435 kts | 61° |
| 2026-04-18 03:58 | 42.30636 | -78.78124 | 32371 ft | 430 kts | 61° |
| 2026-04-18 03:58 | 42.31892 | -78.74471 | 32113 ft | 427 kts | 61° |
| 2026-04-18 03:58 | 42.33139 | -78.70838 | 31864 ft | 425 kts | 62° |
| 2026-04-18 03:59 | 42.34378 | -78.67227 | 31619 ft | 423 kts | 62° |
| 2026-04-18 03:59 | 42.35615 | -78.63614 | 31369 ft | 422 kts | 62° |
| 2026-04-18 03:59 | 42.36840 | -78.60027 | 31133 ft | 420 kts | 62° |
| 2026-04-18 03:59 | 42.38060 | -78.56449 | 30908 ft | 418 kts | 62° |
| 2026-04-18 04:00 | 42.39277 | -78.52884 | 30658 ft | 417 kts | 62° |
| 2026-04-18 04:00 | 42.40490 | -78.49328 | 30412 ft | 415 kts | 63° |
| 2026-04-18 04:00 | 42.41696 | -78.45782 | 30181 ft | 414 kts | 63° |
| 2026-04-18 04:00 | 42.42896 | -78.42253 | 29914 ft | 412 kts | 63° |
| 2026-04-18 04:01 | 42.44089 | -78.38737 | 29630 ft | 410 kts | 63° |
| 2026-04-18 04:01 | 42.45271 | -78.35243 | 29339 ft | 405 kts | 63° |
| 2026-04-18 04:01 | 42.46437 | -78.31789 | 28878 ft | 402 kts | 63° |
| 2026-04-18 04:01 | 42.47596 | -78.28355 | 28451 ft | 398 kts | 63° |
| 2026-04-18 04:02 | 42.48743 | -78.24958 | 28024 ft | 395 kts | 63° |
| 2026-04-18 04:02 | 42.49879 | -78.21589 | 27590 ft | 392 kts | 63° |
| 2026-04-18 04:02 | 42.51008 | -78.18239 | 27146 ft | 389 kts | 63° |
| 2026-04-18 04:02 | 42.52129 | -78.14908 | 26708 ft | 387 kts | 64° |
| 2026-04-18 04:03 | 42.53243 | -78.11593 | 26264 ft | 386 kts | 64° |
| 2026-04-18 04:03 | 42.54351 | -78.08296 | 25817 ft | 384 kts | 64° |
| 2026-04-18 04:03 | 42.55459 | -78.04995 | 25346 ft | 384 kts | 64° |
| 2026-04-18 04:03 | 42.56560 | -78.01704 | 24881 ft | 383 kts | 64° |
| 2026-04-18 04:04 | 42.57646 | -77.98449 | 24396 ft | 384 kts | 64° |
| 2026-04-18 04:04 | 42.58748 | -77.95154 | 23923 ft | 384 kts | 64° |
| 2026-04-18 04:04 | 42.59849 | -77.91852 | 23390 ft | 384 kts | 65° |
| 2026-04-18 04:04 | 42.60948 | -77.88548 | 22889 ft | 383 kts | 64° |
| 2026-04-18 04:05 | 42.62043 | -77.85260 | 22418 ft | 382 kts | 64° |
| 2026-04-18 04:05 | 42.63135 | -77.81983 | 21954 ft | 380 kts | 65° |
| 2026-04-18 04:05 | 42.64224 | -77.78705 | 21474 ft | 379 kts | 65° |
| 2026-04-18 04:05 | 42.65307 | -77.75448 | 21020 ft | 378 kts | 65° |
| 2026-04-18 04:06 | 42.66387 | -77.72189 | 20561 ft | 378 kts | 65° |
| 2026-04-18 04:06 | 42.67465 | -77.68931 | 20099 ft | 377 kts | 65° |
| 2026-04-18 04:06 | 42.68538 | -77.65683 | 19644 ft | 377 kts | 65° |
| 2026-04-18 04:06 | 42.69611 | -77.62428 | 19180 ft | 377 kts | 65° |
| 2026-04-18 04:07 | 42.70676 | -77.59190 | 18824 ft | 373 kts | 65° |
| 2026-04-18 04:07 | 42.71735 | -77.55971 | 18400 ft | 369 kts | 65° |
| 2026-04-18 04:07 | 42.72774 | -77.52818 | 17781 ft | 361 kts | 65° |
| 2026-04-18 04:07 | 42.73784 | -77.49750 | 17306 ft | 350 kts | 65° |
| 2026-04-18 04:08 | 42.74763 | -77.46767 | 16896 ft | 343 kts | 65° |
| 2026-04-18 04:08 | 42.75735 | -77.43802 | 16496 ft | 343 kts | 65° |
| 2026-04-18 04:08 | 42.76694 | -77.40872 | 16090 ft | 343 kts | 65° |
| 2026-04-18 04:08 | 42.77669 | -77.37901 | 15689 ft | 343 kts | 65° |
| 2026-04-18 04:09 | 42.78640 | -77.34932 | 15285 ft | 344 kts | 66° |
| 2026-04-18 04:09 | 42.79608 | -77.31960 | 14899 ft | 343 kts | 66° |
| 2026-04-18 04:09 | 42.80573 | -77.28991 | 14497 ft | 343 kts | 66° |
| 2026-04-18 04:09 | 42.81540 | -77.26013 | 14088 ft | 343 kts | 66° |
| 2026-04-18 04:10 | 42.82505 | -77.23039 | 13721 ft | 342 kts | 66° |
| 2026-04-18 04:10 | 42.83462 | -77.20082 | 13314 ft | 341 kts | 66° |
| 2026-04-18 04:10 | 42.84416 | -77.17153 | 12953 ft | 338 kts | 65° |
| 2026-04-18 04:10 | 42.85396 | -77.14320 | 12791 ft | 322 kts | 64° |
| 2026-04-18 04:11 | 42.86365 | -77.11634 | 12360 ft | 312 kts | 63° |
| 2026-04-18 04:11 | 42.87333 | -77.09002 | 11817 ft | 308 kts | 63° |
| 2026-04-18 04:11 | 42.88289 | -77.06407 | 11251 ft | 305 kts | 63° |
| 2026-04-18 04:11 | 42.89235 | -77.03830 | 10698 ft | 302 kts | 63° |
| 2026-04-18 04:12 | 42.90165 | -77.01273 | 10145 ft | 299 kts | 64° |
| 2026-04-18 04:12 | 42.91081 | -76.98736 | 9567 ft | 296 kts | 64° |
| 2026-04-18 04:12 | 42.91993 | -76.96207 | 9163 ft | 296 kts | 64° |
| 2026-04-18 04:12 | 42.92897 | -76.93698 | 8831 ft | 294 kts | 64° |
| 2026-04-18 04:13 | 42.93794 | -76.91202 | 8498 ft | 292 kts | 64° |
| 2026-04-18 04:13 | 42.94686 | -76.88723 | 8147 ft | 290 kts | 64° |
| 2026-04-18 04:13 | 42.95562 | -76.86285 | 7796 ft | 289 kts | 64° |
| 2026-04-18 04:13 | 42.96453 | -76.83798 | 7464 ft | 287 kts | 64° |
| 2026-04-18 04:14 | 42.97315 | -76.81385 | 7120 ft | 286 kts | 64° |
| 2026-04-18 04:14 | 42.98183 | -76.78960 | 6798 ft | 284 kts | 64° |
| 2026-04-18 04:14 | 42.99049 | -76.76543 | 6458 ft | 282 kts | 64° |
| 2026-04-18 04:14 | 42.99908 | -76.74144 | 6088 ft | 280 kts | 65° |
| 2026-04-18 04:15 | 43.00760 | -76.71761 | 5717 ft | 279 kts | 65° |
| 2026-04-18 04:15 | 43.01606 | -76.69390 | 5350 ft | 277 kts | 65° |
| 2026-04-18 04:15 | 43.02450 | -76.67029 | 4997 ft | 275 kts | 65° |
| 2026-04-18 04:15 | 43.03283 | -76.64689 | 4645 ft | 273 kts | 66° |
| 2026-04-18 04:16 | 43.04110 | -76.62358 | 4308 ft | 272 kts | 66° |
| 2026-04-18 04:16 | 43.04932 | -76.60039 | 3963 ft | 269 kts | 66° |
| 2026-04-18 04:16 | 43.05747 | -76.57744 | 3620 ft | 268 kts | 66° |
| 2026-04-18 04:16 | 43.06557 | -76.55458 | 3294 ft | 266 kts | 66° |
| 2026-04-18 04:17 | 43.07359 | -76.53192 | 3029 ft | 263 kts | 66° |
| 2026-04-18 04:17 | 43.08150 | -76.50968 | 3003 ft | 253 kts | 65° |
| 2026-04-18 04:17 | 43.08896 | -76.48882 | 3004 ft | 236 kts | 66° |
| 2026-04-18 04:17 | 43.09500 | -76.46847 | 3007 ft | 226 kts | 79° |
| 2026-04-18 04:18 | 43.09701 | -76.44787 | 3007 ft | 211 kts | 88° |
| 2026-04-18 04:18 | 43.09776 | -76.42818 | 3009 ft | 205 kts | 89° |
| 2026-04-18 04:18 | 43.09842 | -76.40881 | 3010 ft | 203 kts | 89° |
| 2026-04-18 04:18 | 43.09909 | -76.38956 | 3007 ft | 202 kts | 89° |
| 2026-04-18 04:19 | 43.09977 | -76.37037 | 3011 ft | 202 kts | 89° |
| 2026-04-18 04:19 | 43.10045 | -76.35124 | 3013 ft | 202 kts | 89° |
| 2026-04-18 04:19 | 43.10113 | -76.33208 | 3013 ft | 202 kts | 89° |
| 2026-04-18 04:19 | 43.10179 | -76.31325 | 3030 ft | 190 kts | 89° |
| 2026-04-18 04:20 | 43.10239 | -76.29622 | 2903 ft | 174 kts | 89° |
| 2026-04-18 04:20 | 43.10295 | -76.28051 | 2714 ft | 158 kts | 89° |
| 2026-04-18 04:20 | 43.10345 | -76.26590 | 2504 ft | 151 kts | 89° |
| 2026-04-18 04:20 | 43.10393 | -76.25173 | 2309 ft | 148 kts | 89° |
| 2026-04-18 04:21 | 43.10441 | -76.23777 | 2129 ft | 147 kts | 89° |
| 2026-04-18 04:21 | 43.10489 | -76.22381 | 1932 ft | 147 kts | 89° |
| 2026-04-18 04:21 | 43.10537 | -76.20980 | 1736 ft | 147 kts | 88° |
| 2026-04-18 04:21 | 43.10585 | -76.19582 | 1527 ft | 146 kts | 88° |
| 2026-04-18 04:22 | 43.10633 | -76.18197 | 1333 ft | 145 kts | 88° |
| 2026-04-18 04:22 | 43.10682 | -76.16827 | 1132 ft | 143 kts | 88° |
| 2026-04-18 04:22 | 43.10726 | -76.15481 | 896 ft | 140 kts | 88° |
| 2026-04-18 04:22 | 43.10775 | -76.14158 | 688 ft | 138 kts | 89° |
| 2026-04-18 04:23 | 43.10815 | -76.12848 | 505 ft | 137 kts | 89° |
| 2026-04-18 04:23 | 43.10852 | -76.11590 | 424 ft | 119 kts | 86° |
| 2026-04-18 04:23 | 43.10884 | -76.10686 | 427 ft | 70 kts | 86° |
| 2026-04-18 04:23 | 43.10900 | -76.10195 | 424 ft | 44 kts | 89° |
| 2026-04-18 04:24 | 43.10911 | -76.09892 | 425 ft | 16 kts | 81° |
| 2026-04-18 04:24 | 43.10981 | -76.09903 | 412 ft | 12 kts | 320° |
| 2026-04-18 04:24 | 43.11032 | -76.09976 | 416 ft | 10 kts | 313° |
| 2026-04-18 04:24 | 43.11079 | -76.10043 | 421 ft | 23 kts | 314° |
| 2026-04-18 04:25 | 43.11212 | -76.10232 | 424 ft | 29 kts | 314° |
| 2026-04-18 04:25 | 43.11391 | -76.10487 | 425 ft | 18 kts | 314° |
| 2026-04-18 04:25 | 43.11408 | -76.10634 | 424 ft | 20 kts | 268° |
| 2026-04-18 04:25 | 43.11402 | -76.10840 | 424 ft | 19 kts | 269° |
| 2026-04-18 04:26 | 43.11450 | -76.10860 | 418 ft | 11 kts | 28° |
| 2026-04-18 04:26 | 43.11505 | -76.10848 | 422 ft | 11 kts | 3° |
| 2026-04-18 04:26 | 43.11569 | -76.10880 | 424 ft | 9 kts | 305° |
| 2026-04-18 04:26 | 43.11553 | -76.10934 | 419 ft | 6 kts | 227° |
| 2026-04-18 04:27 | 43.11532 | -76.10961 | 418 ft | 0 kts | 223° |